Sunday, April 22, 2018, 1:05 AM GMT
Back to Local

CXBO, Beauport CS, Que.

Location: , , Canada Lat: 46.833
Local Time: 1:05 AM GMT ( 1:05 GMT) Lon: -71.2
Time Zone: GMT Elev: 32 ft

Show me the last for .
Show Coded

Time T Td Feel RH Dir Speed Gust Alt SLP Vis Weather Sky Remarks
2018-04-22 00:00 - - - 0 310° 7 - - - 0 None
2018-04-21 23:00 - - - 0 310° 9 - - - 0 None
2018-04-21 22:00 - - - 0 300° 10 17 - - 0 None
2018-04-21 21:00 - - - 0 320° 8 - - - 0 None
2018-04-21 20:00 - - - 0 310° 10 17 - - 0 None
2018-04-21 19:00 - - - 0 310° 7 - - - 0 None
2018-04-21 18:00 - - - 0 320° 9 - - - 0 None
2018-04-21 17:00 - - - 0 310° 6 - - - 0 None
2018-04-21 16:00 - - - 0 350° 12 18 - - 0 None
2018-04-21 15:00 - - - 0 330° 9 18 - - 0 None
2018-04-21 14:00 - - - 0 350° 7 - - - 0 None
2018-04-21 13:00 - - - 0 330° 9 - - - 0 None
2018-04-21 12:00 - - - 0 270° 7 - - - 0 None
2018-04-21 11:00 - - - 0 300° 10 - - - 0 None
2018-04-21 10:00 - - - 0 280° 9 - - - 0 None
2018-04-21 09:00 - - - 0 310° 8 - - - 0 None
2018-04-21 08:00 - - - 0 290° 5 - - - 0 None
2018-04-21 07:00 - - - 0 280° 6 - - - 0 None
2018-04-21 06:00 - - - 0 290° 2 - - - 0 None
2018-04-21 05:00 - - - 0 250° 5 - - - 0 None
2018-04-21 03:00 - - - 0 290° 2 - - - 0 None
2018-04-21 02:00 - - - 0 260° 8 - - - 0 None

Support USWX by starting your Amazon purchase here.